createdAt,value
2018-11-22T00:00:54.721Z,30.45
2018-11-22T00:02:58.249Z,29.35
2018-11-22T00:05:00.681Z,31.60
2018-11-22T00:07:03.145Z,33.45
2018-11-22T00:09:08.115Z,31.75
2018-11-22T00:11:10.534Z,28.80
2018-11-22T00:13:13.004Z,28.38
2018-11-22T00:15:16.013Z,32.63
2018-11-22T00:17:18.779Z,32.53
2018-11-22T00:19:21.217Z,32.35
2018-11-22T00:21:23.643Z,30.05
2018-11-22T00:23:26.093Z,31.40
2018-11-22T00:25:28.518Z,31.20
2018-11-22T00:27:31.028Z,30.48
2018-11-22T00:29:33.489Z,31.55
2018-11-22T00:31:35.915Z,30.45
2018-11-22T00:33:38.385Z,30.92
2018-11-22T00:35:40.852Z,30.95
2018-11-22T00:37:44.929Z,32.17
2018-11-22T00:39:47.397Z,29.10
2018-11-22T00:41:49.817Z,31.48
2018-11-22T00:43:52.269Z,31.85
2018-11-22T00:45:54.738Z,30.92
2018-11-22T00:47:57.162Z,31.25
2018-11-22T00:49:59.583Z,32.50
2018-11-22T00:52:02.450Z,31.87
2018-11-22T00:54:05.304Z,31.40
2018-11-22T12:15:58.251Z,33.30
2018-11-22T12:18:01.213Z,33.35
2018-11-22T12:20:05.050Z,33.10
2018-11-22T12:22:08.031Z,31.60
2018-11-22T12:24:10.990Z,30.85
2018-11-22T12:26:14.329Z,30.52
2018-11-22T12:28:17.378Z,33.33
2018-11-22T12:30:22.861Z,32.33
2018-11-22T12:32:32.531Z,33.38
2018-11-22T12:34:41.498Z,31.45
2018-11-22T12:36:50.070Z,33.70
2018-11-22T12:38:53.095Z,32.70
2018-11-22T12:40:56.400Z,32.20
2018-11-22T12:42:59.403Z,32.45
2018-11-22T12:45:03.373Z,31.95
2018-11-22T12:47:06.541Z,30.80
2018-11-22T12:49:09.533Z,34.58
2018-11-22T12:51:12.548Z,33.33
2018-11-22T12:53:15.573Z,33.18
2018-11-22T12:55:18.538Z,31.10
2018-11-22T12:57:21.522Z,33.58
2018-11-22T12:59:24.509Z,32.20
2018-11-22T13:01:27.456Z,33.33
2018-11-22T13:03:30.367Z,31.07
2018-11-22T13:05:33.314Z,31.60
2018-11-22T13:07:36.246Z,32.10
2018-11-22T13:09:39.161Z,31.27
2018-11-22T13:11:47.621Z,34.80
2018-11-22T13:13:45.119Z,31.62
2018-11-22T13:15:48.030Z,32.08
2018-11-22T13:17:51.010Z,32.93
2018-11-22T13:19:53.906Z,30.97
2018-11-22T13:21:56.855Z,32.15
2018-11-22T13:23:59.830Z,31.10
2018-11-22T13:26:02.745Z,34.08
2018-11-22T13:28:05.701Z,32.83
2018-11-22T13:30:13.870Z,32.70
2018-11-22T13:32:21.284Z,32.28
2018-11-22T13:34:19.975Z,34.48
2018-11-22T13:36:22.978Z,28.85
2018-11-22T13:38:25.940Z,31.82
2018-11-22T13:40:28.890Z,32.73
2018-11-22T13:42:31.905Z,34.63
2018-11-22T13:44:34.862Z,33.33
2018-11-22T13:46:37.832Z,35.35
2018-11-22T13:48:40.795Z,31.30
2018-11-22T13:50:43.750Z,34.95
2018-11-22T13:52:48.209Z,33.67
2018-11-22T13:54:51.161Z,32.70
2018-11-22T13:56:54.184Z,36.38
2018-11-22T13:58:57.253Z,35.30
2018-11-22T14:01:00.237Z,34.00
2018-11-22T14:03:04.627Z,33.88
2018-11-22T14:05:11.493Z,34.43
2018-11-22T14:07:10.730Z,31.77
2018-11-22T14:09:13.690Z,32.60
2018-11-22T14:11:17.073Z,32.63
2018-11-22T14:13:20.023Z,33.10
2018-11-22T14:15:26.313Z,34.23
2018-11-22T14:17:29.302Z,32.20
2018-11-22T14:19:32.253Z,33.65
2018-11-22T14:21:35.221Z,35.40
2018-11-22T14:23:38.253Z,35.13
2018-11-22T14:25:41.197Z,35.28
2018-11-22T14:27:45.057Z,35.60
2018-11-22T14:29:48.062Z,34.67
2018-11-22T14:31:50.998Z,36.20
2018-11-22T14:33:53.977Z,38.35
2018-11-22T14:35:57.001Z,33.28
2018-11-22T14:37:59.957Z,32.95
2018-11-22T14:40:03.686Z,33.60
2018-11-22T14:42:06.674Z,31.65
2018-11-22T14:44:09.627Z,31.95
2018-11-22T14:46:12.630Z,33.03
2018-11-22T14:48:15.639Z,34.00
2018-11-22T14:50:35.237Z,33.33
2018-11-22T14:52:38.415Z,32.80
2018-11-22T14:54:41.335Z,33.60
2018-11-22T14:56:44.273Z,34.03
2018-11-22T14:58:47.217Z,31.52
2018-11-22T15:00:50.285Z,33.50
2018-11-22T15:02:53.208Z,36.63
2018-11-22T15:04:56.146Z,32.40
2018-11-22T15:06:59.097Z,33.95
2018-11-22T15:09:01.991Z,33.92
2018-11-22T15:11:05.153Z,33.92
2018-11-22T15:13:08.097Z,31.30
2018-11-22T15:15:14.333Z,31.70
2018-11-22T15:17:17.237Z,34.40
2018-11-22T15:19:20.129Z,34.83
2018-11-22T15:21:23.083Z,33.35
2018-11-22T15:23:25.997Z,34.98
2018-11-22T15:25:29.639Z,33.63
2018-11-22T15:27:32.570Z,32.67
2018-11-22T15:29:35.475Z,33.95
2018-11-22T15:31:39.091Z,34.73
2018-11-22T15:33:42.025Z,34.20
2018-11-22T15:35:44.992Z,33.02
2018-11-22T15:37:48.281Z,33.20
2018-11-22T15:39:51.191Z,32.15
2018-11-22T15:41:54.127Z,33.88
2018-11-22T15:43:57.136Z,29.80
2018-11-22T15:46:00.059Z,35.45
2018-11-22T15:48:03.041Z,33.10
2018-11-22T15:50:08.908Z,34.65
2018-11-22T15:52:11.821Z,34.85
2018-11-22T15:54:14.778Z,31.15
2018-11-22T15:56:17.705Z,35.40
2018-11-22T15:58:20.616Z,35.20
2018-11-22T16:00:30.850Z,31.82
2018-11-22T16:02:33.812Z,33.15
2018-11-22T16:04:36.695Z,31.70
2018-11-22T16:06:39.585Z,34.30
2018-11-22T16:08:42.514Z,34.13
2018-11-22T16:10:45.474Z,29.70
2018-11-22T16:12:50.594Z,34.63
2018-11-22T16:14:53.526Z,32.85
2018-11-22T16:16:56.529Z,30.60
2018-11-22T16:18:59.510Z,30.57
2018-11-22T16:21:02.429Z,31.80
2018-11-22T16:23:05.804Z,33.53
2018-11-22T16:25:10.439Z,32.40
2018-11-22T16:27:13.536Z,29.15
2018-11-22T16:29:16.456Z,30.88
2018-11-22T16:31:19.423Z,31.95
2018-11-22T16:33:22.334Z,28.32
2018-11-22T16:35:32.818Z,30.08
2018-11-22T16:37:29.044Z,31.80
2018-11-22T16:39:31.953Z,30.57
2018-11-22T16:41:35.046Z,32.73
2018-11-22T16:43:38.137Z,29.63
2018-11-22T16:45:41.138Z,30.45
2018-11-22T16:47:44.036Z,31.48
2018-11-22T16:49:47.015Z,33.38
2018-11-22T16:51:49.956Z,30.60
2018-11-22T16:53:52.865Z,31.02
2018-11-22T16:55:55.766Z,33.88
2018-11-22T16:57:59.906Z,31.90
2018-11-22T17:00:02.921Z,35.13
2018-11-22T17:02:05.852Z,29.92
2018-11-22T17:04:08.898Z,34.35
2018-11-22T17:06:11.816Z,33.18
2018-11-22T17:08:14.737Z,32.67
2018-11-22T17:10:19.022Z,35.63
2018-11-22T17:12:22.031Z,33.25
2018-11-22T17:14:24.947Z,34.58
2018-11-22T17:16:27.982Z,35.52
2018-11-22T17:18:31.055Z,35.70
2018-11-22T17:20:34.155Z,35.05
2018-11-22T17:22:37.550Z,34.40
2018-11-22T17:24:40.636Z,35.83
2018-11-22T17:26:43.673Z,34.08
2018-11-22T17:28:46.682Z,32.78
2018-11-22T17:30:49.934Z,32.23
2018-11-22T17:32:52.898Z,35.03
2018-11-22T17:34:55.918Z,31.37
2018-11-22T17:36:59.072Z,35.90
2018-11-22T17:39:02.277Z,33.42
2018-11-22T17:41:05.869Z,32.63
2018-11-22T17:43:08.911Z,31.95
2018-11-22T17:45:13.453Z,33.92
2018-11-22T17:47:16.546Z,33.23
2018-11-22T17:49:19.541Z,29.87
2018-11-22T17:51:22.530Z,29.60
2018-11-22T17:53:25.484Z,31.65
2018-11-22T17:55:29.490Z,27.87
2018-11-22T17:57:32.525Z,29.63
2018-11-22T17:59:35.900Z,28.25
2018-11-22T18:01:38.889Z,29.90
2018-11-22T18:03:41.868Z,26.70
2018-11-22T18:05:44.926Z,24.85
2018-11-22T18:07:47.928Z,28.92
2018-11-22T18:09:50.995Z,25.92
2018-11-22T18:11:53.979Z,25.68
2018-11-22T18:13:56.985Z,26.15
2018-11-22T18:16:00.669Z,24.37
2018-11-22T18:18:03.732Z,24.50
2018-11-22T18:20:12.314Z,23.67
2018-11-22T18:22:15.299Z,25.35
2018-11-22T18:24:18.444Z,24.63
2018-11-22T18:26:21.445Z,24.35
2018-11-22T18:28:24.419Z,24.80
2018-11-22T18:30:29.704Z,26.87
2018-11-22T18:32:32.743Z,26.47
2018-11-22T18:34:35.718Z,22.80
2018-11-22T18:36:39.001Z,22.93
2018-11-22T18:38:41.961Z,24.45
2018-11-22T18:40:45.038Z,25.20
2018-11-22T18:42:49.041Z,26.23
2018-11-22T18:44:52.118Z,25.15
2018-11-22T18:46:55.145Z,22.85
2018-11-22T18:48:58.201Z,24.87
2018-11-22T18:51:01.292Z,26.30
2018-11-22T18:53:04.932Z,25.45
2018-11-22T18:55:08.725Z,26.82
2018-11-22T18:57:11.711Z,25.45
2018-11-22T18:59:14.739Z,24.90
2018-11-22T19:01:17.709Z,25.85
2018-11-22T19:03:20.817Z,24.70
2018-11-22T19:05:23.853Z,27.25
2018-11-22T19:07:26.794Z,28.00
2018-11-22T19:09:29.761Z,27.93
2018-11-22T19:11:32.805Z,27.98
2018-11-22T19:13:35.789Z,25.45
2018-11-22T19:15:40.294Z,25.52
2018-11-22T19:17:43.410Z,27.10
2018-11-22T19:19:46.403Z,27.10
2018-11-22T19:21:49.446Z,24.02
2018-11-22T19:23:52.870Z,28.57
2018-11-22T19:25:55.857Z,26.30
2018-11-22T19:27:59.955Z,25.32
2018-11-22T19:30:03.811Z,24.47
2018-11-22T19:32:06.754Z,26.77
2018-11-22T19:34:09.772Z,26.68
2018-11-22T19:36:12.728Z,26.33
2018-11-22T19:42:59.676Z,26.17
2018-11-22T19:45:02.671Z,24.95
2018-11-22T19:47:05.669Z,25.57
2018-11-22T19:49:08.701Z,26.82
2018-11-22T19:51:11.696Z,25.80
2018-11-22T19:53:15.609Z,26.35
2018-11-22T19:55:20.160Z,28.25
2018-11-22T19:57:23.139Z,26.77
2018-11-22T19:59:26.124Z,26.30
2018-11-22T20:01:29.142Z,26.20
2018-11-22T20:03:32.114Z,26.40
2018-11-22T20:05:36.535Z,25.70
2018-11-22T20:07:40.009Z,27.55
2018-11-22T20:09:43.052Z,25.57
2018-11-22T20:11:46.166Z,24.65
2018-11-22T20:13:49.201Z,25.32
2018-11-22T20:15:52.169Z,27.42
2018-11-22T20:17:55.874Z,28.47
2018-11-22T20:19:58.942Z,26.05
2018-11-22T20:22:01.937Z,26.82
2018-11-22T20:24:05.084Z,25.92
2018-11-22T20:26:08.049Z,26.42
2018-11-22T20:28:11.029Z,24.12
2018-11-22T20:30:18.215Z,28.98
2018-11-22T20:32:21.173Z,26.12
2018-11-22T20:34:24.124Z,27.22
2018-11-22T20:36:27.131Z,28.70
2018-11-22T20:38:30.137Z,28.77
2018-11-22T20:40:33.069Z,27.02
2018-11-22T20:42:36.383Z,26.77
2018-11-22T20:44:39.404Z,28.15
2018-11-22T20:46:42.360Z,26.80
2018-11-22T20:48:45.280Z,26.45
2018-11-22T20:50:48.314Z,27.52
2018-11-22T20:52:51.369Z,29.18
2018-11-22T20:54:54.371Z,24.07
2018-11-22T20:56:57.396Z,25.85
2018-11-22T20:59:00.386Z,25.82
2018-11-22T21:01:03.377Z,25.62
2018-11-22T21:03:06.349Z,24.72
2018-11-22T21:05:10.334Z,26.90
2018-11-22T21:07:13.246Z,25.50
2018-11-22T21:09:16.501Z,26.48
2018-11-22T21:11:19.449Z,23.60
2018-11-22T21:13:22.463Z,23.75
2018-11-22T21:15:29.708Z,23.45
2018-11-22T21:17:32.630Z,25.15
2018-11-22T21:19:35.616Z,25.75
2018-11-22T21:21:38.589Z,26.60
2018-11-22T21:23:41.562Z,23.15
2018-11-22T21:25:44.546Z,26.87
2018-11-22T21:27:47.749Z,23.95
2018-11-22T21:29:50.873Z,25.12
2018-11-22T21:31:53.788Z,25.00
2018-11-22T21:33:56.860Z,24.67
2018-11-22T21:35:59.830Z,26.02
2018-11-22T21:38:03.827Z,25.43
2018-11-22T21:40:07.611Z,26.20
2018-11-22T21:42:10.523Z,24.12
2018-11-22T21:44:13.486Z,27.25
2018-11-22T21:46:20.986Z,25.25
2018-11-22T21:48:23.909Z,26.20
2018-11-22T21:50:27.545Z,26.40
2018-11-22T21:52:30.431Z,27.48
2018-11-22T21:54:33.373Z,24.75
2018-11-22T21:56:36.332Z,27.20
2018-11-22T21:58:39.264Z,24.12
2018-11-22T22:00:42.269Z,24.02
2018-11-22T22:02:52.505Z,25.90
2018-11-22T22:04:49.509Z,23.90
2018-11-22T22:06:52.440Z,23.65
2018-11-22T22:08:55.448Z,24.77
2018-11-22T22:10:58.473Z,24.57
2018-11-22T22:13:01.542Z,24.50
2018-11-22T22:15:07.238Z,23.83
2018-11-22T22:17:10.192Z,25.32
2018-11-22T22:19:13.110Z,23.70
2018-11-22T22:21:16.105Z,25.02
2018-11-22T22:23:19.091Z,24.52
2018-11-22T22:25:23.103Z,25.02
2018-11-22T22:27:26.036Z,24.37
2018-11-22T22:29:28.995Z,23.83
2018-11-22T22:31:32.305Z,25.10
2018-11-22T22:33:35.243Z,23.05
2018-11-22T22:35:38.164Z,24.35
2018-11-22T22:37:41.230Z,25.27
2018-11-22T22:39:44.195Z,22.70
2018-11-22T22:41:47.179Z,23.32
2018-11-22T22:43:50.157Z,24.55
2018-11-22T22:45:53.194Z,24.18
2018-11-22T22:47:56.213Z,23.92
2018-11-22T22:49:59.162Z,23.90
2018-11-22T22:52:02.116Z,25.10
2018-11-22T22:54:05.301Z,25.45
2018-11-22T22:56:08.233Z,22.37
2018-11-22T22:58:11.281Z,24.57
2018-11-22T23:00:27.207Z,23.62
2018-11-22T23:02:30.174Z,22.25
2018-11-22T23:04:33.189Z,23.65
2018-11-22T23:06:36.190Z,24.40
2018-11-22T23:08:39.185Z,23.95
2018-11-22T23:10:42.201Z,23.73
2018-11-22T23:12:45.239Z,23.60
2018-11-22T23:14:48.186Z,22.67
2018-11-22T23:16:51.169Z,24.07
2018-11-22T23:18:54.148Z,23.45
2018-11-22T23:20:57.159Z,25.57
2018-11-22T23:23:00.149Z,25.90
2018-11-22T23:25:03.110Z,25.72
2018-11-22T23:27:06.062Z,25.10
2018-11-22T23:29:08.971Z,24.67
2018-11-22T23:31:11.944Z,27.40
2018-11-22T23:33:14.838Z,27.32
2018-11-22T23:35:18.082Z,22.90
2018-11-22T23:37:21.385Z,26.95
2018-11-22T23:39:24.292Z,27.37
2018-11-22T23:41:27.185Z,26.45
2018-11-22T23:43:30.110Z,26.93
2018-11-22T23:45:33.549Z,28.05
2018-11-22T23:47:36.929Z,24.30
2018-11-22T23:49:39.874Z,25.32
2018-11-22T23:51:42.778Z,25.30
2018-11-22T23:53:45.704Z,24.12
2018-11-22T23:55:48.956Z,24.65
2018-11-22T23:57:52.044Z,24.25
2018-11-22T23:59:55.007Z,25.10
